Time;durP1;ratioP1;P1;durP2;ratioP2;P2;SDS_P1;SDS_P2;PMS_P1;PMS_P2;Temp;Humidity;BMP_temperature;BMP_pressure;BME280_temperature;BME280_humidity;BME280_pressure;Samples;Min_cycle;Max_cycle;Signal;HPM_P1;HPM_P2
2022/03/19 00:01:18;;;;;;;69.18;56.13;;;;;;;3.53;100.00;97825.72;5073588;28;24438;-77
2022/03/19 00:03:45;;;;;;;69.55;56.10;;;;;;;3.47;100.00;97820.59;5073376;28;24426;-77
2022/03/19 00:06:11;;;;;;;70.20;57.97;;;;;;;3.45;100.00;97830.00;5073585;28;24793;-77
2022/03/19 00:08:38;;;;;;;66.90;57.60;;;;;;;3.37;100.00;97835.16;5073312;28;24441;-76
2022/03/19 00:11:05;;;;;;;66.67;56.83;;;;;;;3.26;100.00;97824.03;5073530;28;24899;-77
2022/03/19 00:13:33;;;;;;;64.68;57.50;;;;;;;3.40;100.00;97824.03;5073028;28;25037;-77
2022/03/19 00:16:00;;;;;;;69.15;59.00;;;;;;;3.58;100.00;97818.88;5072003;28;24533;-77
2022/03/19 00:18:27;;;;;;;69.30;58.73;;;;;;;3.42;100.00;97827.44;5073462;28;24518;-77
2022/03/19 00:20:54;;;;;;;71.45;58.50;;;;;;;3.62;100.00;97837.66;5073240;28;24452;-77
2022/03/19 00:23:20;;;;;;;72.90;60.20;;;;;;;3.41;100.00;97833.41;5072818;28;25074;-77
2022/03/19 00:25:47;;;;;;;72.85;60.47;;;;;;;3.44;100.00;97838.53;5072726;28;24951;-78
2022/03/19 00:28:18;;;;;;;68.65;58.67;;;;;;;3.37;100.00;97836.84;5073217;28;24434;-77
2022/03/19 00:30:45;;;;;;;70.35;58.78;;;;;;;3.56;100.00;97835.97;5072874;28;24441;-77
2022/03/19 00:33:12;;;;;;;77.70;59.40;;;;;;;3.53;100.00;97832.56;5072543;28;24974;-77
2022/03/19 00:35:38;;;;;;;76.07;60.20;;;;;;;3.32;100.00;97834.28;5073000;28;24475;-76
2022/03/19 00:38:05;;;;;;;73.65;59.75;;;;;;;3.29;100.00;97824.03;5072834;28;24427;-76
2022/03/19 00:40:34;;;;;;;70.13;61.70;;;;;;;3.40;100.00;97834.28;5072494;28;24453;-77
2022/03/19 00:43:00;;;;;;;69.93;60.85;;;;;;;3.52;100.00;97823.16;5072824;28;24514;-77
2022/03/19 00:45:28;;;;;;;68.88;61.42;;;;;;;3.36;100.00;97833.41;5072834;28;24423;-77
2022/03/19 00:47:55;;;;;;;71.22;60.42;;;;;;;3.28;100.00;97831.72;5072849;28;24835;-77
2022/03/19 00:50:21;;;;;;;73.22;63.03;;;;;;;3.37;100.00;97834.28;5072177;28;24517;-77
2022/03/19 00:52:48;;;;;;;73.35;60.60;;;;;;;3.34;100.00;97827.47;5072633;28;24438;-77
2022/03/19 00:55:14;;;;;;;69.03;58.78;;;;;;;3.40;100.00;97829.16;5072196;28;24438;-77
2022/03/19 00:57:42;;;;;;;67.32;56.38;;;;;;;3.26;100.00;97826.59;5072578;28;24510;-77
2022/03/19 01:00:11;;;;;;;72.03;60.42;;;;;;;3.25;100.00;97830.03;5072251;28;24434;-77
2022/03/19 01:02:40;;;;;;;65.88;57.30;;;;;;;3.03;100.00;97825.78;5072519;28;24573;-76
2022/03/19 01:05:07;;;;;;;66.55;56.85;;;;;;;2.92;100.00;97823.19;5072127;28;24423;-77
2022/03/19 01:07:40;;;;;;;70.28;57.22;;;;;;;3.08;100.00;97822.38;5072210;28;24433;-77
2022/03/19 01:10:07;;;;;;;70.40;57.22;;;;;;;3.01;100.00;97812.97;5072149;28;24419;-77
2022/03/19 01:12:33;;;;;;;67.15;57.28;;;;;;;3.01;100.00;97819.81;5072289;28;24873;-76
2022/03/19 01:15:00;;;;;;;66.20;56.42;;;;;;;3.02;100.00;97819.78;5072043;28;24426;-77
2022/03/19 01:17:27;;;;;;;64.20;57.20;;;;;;;3.04;100.00;97818.09;5072223;28;24476;-76
2022/03/19 01:19:57;;;;;;;63.00;56.17;;;;;;;2.96;100.00;97821.50;5071582;28;24529;-78
2022/03/19 01:22:24;;;;;;;68.35;56.35;;;;;;;3.00;100.00;97813.81;5071497;28;24450;-76
2022/03/19 01:24:51;;;;;;;65.50;56.38;;;;;;;3.04;100.00;97814.66;5071568;28;25009;-77
2022/03/19 01:27:18;;;;;;;62.03;54.33;;;;;;;2.96;100.00;97814.66;5071657;28;24517;-77
2022/03/19 01:29:45;;;;;;;68.97;55.03;;;;;;;2.92;100.00;97813.81;5071574;28;24797;-78
2022/03/19 01:32:11;;;;;;;64.25;57.28;;;;;;;2.75;100.00;97815.53;5071376;28;25010;-78
2022/03/19 01:34:38;;;;;;;66.32;58.08;;;;;;;2.61;100.00;97809.53;5071775;28;24429;-77
2022/03/19 01:37:05;;;;;;;64.32;56.78;;;;;;;2.67;100.00;97812.97;5071865;28;24414;-77
2022/03/19 01:39:32;;;;;;;65.18;57.22;;;;;;;2.80;100.00;97811.25;5071628;28;24433;-77
2022/03/19 01:41:59;;;;;;;62.93;55.60;;;;;;;2.85;100.00;97804.44;5071643;28;24513;-76
2022/03/19 01:44:25;;;;;;;69.13;54.92;;;;;;;2.83;100.00;97793.34;5071641;28;24426;-77
2022/03/19 01:46:57;;;;;;;62.92;54.67;;;;;;;2.87;100.00;97807.00;5071522;28;24481;-77
2022/03/19 01:49:23;;;;;;;65.20;55.90;;;;;;;3.10;100.00;97796.75;5071266;28;24426;-78
2022/03/19 01:51:50;;;;;;;69.25;57.00;;;;;;;3.11;100.00;97804.41;5071359;28;24455;-77
2022/03/19 01:54:18;;;;;;;68.25;57.17;;;;;;;3.07;100.00;97796.75;5071549;28;24437;-77
2022/03/19 01:56:45;;;;;;;68.50;56.27;;;;;;;3.16;100.00;97796.75;5071303;28;24541;-77
2022/03/19 01:59:13;;;;;;;68.70;56.55;;;;;;;3.18;100.00;97796.75;5071350;28;24468;-78
2022/03/19 02:01:40;;;;;;;64.95;55.78;;;;;;;3.06;100.00;97784.81;5071966;28;24421;-77
2022/03/19 02:04:08;;;;;;;61.78;54.17;;;;;;;2.91;100.00;97783.97;5071320;28;24430;-77
2022/03/19 02:06:36;;;;;;;64.55;54.95;;;;;;;2.95;100.00;97789.94;5071196;28;24434;-78
2022/03/19 02:09:03;;;;;;;62.13;54.25;;;;;;;2.88;100.00;97783.09;5071002;28;24419;-77
2022/03/19 02:11:31;;;;;;;69.07;56.15;;;;;;;3.00;100.00;97789.94;5071107;28;24453;-77
2022/03/19 02:13:57;;;;;;;67.70;55.72;;;;;;;3.01;100.00;97779.69;5071059;28;24453;-77
2022/03/19 02:16:24;;;;;;;68.07;55.42;;;;;;;3.01;100.00;97791.66;5071095;28;24419;-77
2022/03/19 02:18:50;;;;;;;66.35;56.03;;;;;;;3.03;100.00;97785.66;5070863;28;24422;-77
2022/03/19 02:21:17;;;;;;;71.55;54.25;;;;;;;2.86;100.00;97783.13;5071146;28;24419;-77
2022/03/19 02:26:42;;;;;;;63.97;53.13;;;;;;;2.88;100.00;97781.41;5070718;28;24931;-77
2022/03/19 02:29:08;;;;;;;64.70;53.33;;;;;;;2.91;100.00;97781.41;5070501;28;24418;-77
2022/03/19 02:31:36;;;;;;;63.92;53.72;;;;;;;2.98;100.00;97776.28;5070477;28;24991;-76
2022/03/19 02:34:02;;;;;;;67.10;52.13;;;;;;;2.81;100.00;97782.25;5070629;28;24421;-77
2022/03/19 02:36:29;;;;;;;60.50;51.90;;;;;;;2.74;100.00;97785.66;5070852;28;24426;-78
2022/03/19 02:38:56;;;;;;;59.22;52.10;;;;;;;2.96;100.00;97776.28;5069767;28;24426;-77
2022/03/19 02:41:23;;;;;;;63.28;52.75;;;;;;;2.82;100.00;97767.78;5070469;28;24978;-77
2022/03/19 02:43:50;;;;;;;63.08;54.42;;;;;;;2.84;100.00;97771.16;5070751;28;24434;-77
2022/03/19 02:46:16;;;;;;;68.28;51.55;;;;;;;2.76;100.00;97768.63;5070751;28;24496;-77
2022/03/19 02:48:43;;;;;;;68.13;54.72;;;;;;;2.87;100.00;97773.72;5070235;28;24434;-77
2022/03/19 02:51:09;;;;;;;64.28;52.42;;;;;;;2.85;100.00;97772.88;5070527;28;24557;-78
2022/03/19 02:53:35;;;;;;;57.30;50.97;;;;;;;2.93;100.00;97773.75;5070370;28;24819;-77
2022/03/19 02:56:04;;;;;;;58.47;51.28;;;;;;;2.88;100.00;97775.44;5070647;28;24427;-77
2022/03/19 02:58:30;;;;;;;57.13;50.95;;;;;;;2.85;100.00;97767.75;5070663;28;24453;-77
2022/03/19 03:00:57;;;;;;;56.75;49.60;;;;;;;2.88;100.00;97767.75;5070122;28;24963;-77
2022/03/19 03:03:24;;;;;;;55.43;49.27;;;;;;;2.73;100.00;97767.75;5070267;28;24944;-78
2022/03/19 03:05:50;;;;;;;57.80;51.38;;;;;;;2.63;100.00;97769.44;5070535;28;24979;-78
2022/03/19 03:08:17;;;;;;;57.28;51.05;;;;;;;2.55;100.00;97766.03;5070314;28;24978;-77
2022/03/19 03:10:43;;;;;;;57.50;49.95;;;;;;;2.60;100.00;97769.47;5070192;28;24429;-77
2022/03/19 03:13:11;;;;;;;56.55;49.28;;;;;;;2.69;100.00;97773.72;5070414;28;24484;-77
2022/03/19 03:15:37;;;;;;;61.67;52.90;;;;;;;2.64;100.00;97772.03;5070419;28;24433;-77
2022/03/19 03:18:05;;;;;;;54.75;47.85;;;;;;;2.48;100.00;97766.88;5070395;28;24429;-77
2022/03/19 03:20:31;;;;;;;60.20;48.95;;;;;;;2.56;100.00;97766.06;5070265;28;24465;-77
2022/03/19 03:22:58;;;;;;;54.65;48.75;;;;;;;2.55;100.00;97771.16;5070022;28;24952;-77
2022/03/19 03:25:24;;;;;;;59.67;48.22;;;;;;;2.54;100.00;97769.47;5069927;28;24461;-76
2022/03/19 03:27:51;;;;;;;59.47;49.97;;;;;;;2.73;100.00;97770.31;5070378;28;24423;-77
2022/03/19 03:30:20;;;;;;;56.60;50.50;;;;;;;2.60;100.00;97772.88;5070215;28;24855;-77
2022/03/19 03:32:47;;;;;;;55.90;47.53;;;;;;;2.49;100.00;97777.13;5070034;28;24459;-77
2022/03/19 03:35:13;;;;;;;66.57;49.30;;;;;;;2.51;100.00;97780.53;5069738;28;24423;-77
2022/03/19 03:37:40;;;;;;;56.33;49.38;;;;;;;2.43;100.00;97772.84;5070186;28;24431;-78
2022/03/19 03:40:08;;;;;;;56.50;48.95;;;;;;;2.47;100.00;97778.81;5070035;28;24826;-78
2022/03/19 03:42:35;;;;;;;58.67;50.67;;;;;;;2.52;100.00;97771.16;5070073;28;24506;-77
2022/03/19 03:45:01;;;;;;;60.97;49.95;;;;;;;2.40;100.00;97770.28;5070126;28;24442;-77
2022/03/19 03:47:29;;;;;;;58.67;49.80;;;;;;;2.32;100.00;97774.53;5069841;28;24461;-77
2022/03/19 03:49:56;;;;;;;63.15;52.22;;;;;;;2.22;100.00;97765.13;5070015;28;24488;-77
2022/03/19 03:52:22;;;;;;;63.28;50.38;;;;;;;2.22;100.00;97761.72;5073753;28;24504;-77
2022/03/19 03:54:49;;;;;;;59.70;50.35;;;;;;;2.14;100.00;97764.28;5073698;28;24430;-77
2022/03/19 03:57:16;;;;;;;56.25;50.13;;;;;;;2.01;100.00;97763.41;5073703;28;24427;-77
2022/03/19 03:59:43;;;;;;;60.58;50.35;;;;;;;2.11;100.00;97760.03;5073387;28;24418;-76
2022/03/19 04:02:09;;;;;;;62.67;50.50;;;;;;;2.36;100.00;97760.06;5073192;28;24987;-77
2022/03/19 04:04:38;;;;;;;62.77;51.53;;;;;;;2.16;100.00;97754.91;5073315;28;25022;-77
2022/03/19 04:07:04;;;;;;;59.22;50.53;;;;;;;2.14;100.00;97756.59;5073569;28;24886;-77
2022/03/19 04:09:31;;;;;;;60.42;53.90;;;;;;;1.98;100.00;97758.28;5073347;28;24426;-77
2022/03/19 04:11:57;;;;;;;59.88;52.47;;;;;;;2.08;100.00;97754.06;5073283;28;24453;-77
2022/03/19 04:14:24;;;;;;;63.95;54.30;;;;;;;1.75;100.00;97753.09;5073091;28;24962;-77
2022/03/19 04:16:50;;;;;;;63.35;54.15;;;;;;;1.91;100.00;97751.44;5073304;28;24560;-77
2022/03/19 04:19:16;;;;;;;64.75;55.08;;;;;;;1.73;100.00;97753.94;5073197;28;24480;-77
2022/03/19 04:21:44;;;;;;;65.57;54.38;;;;;;;1.77;100.00;97750.53;5072968;28;24422;-77
2022/03/19 04:24:11;;;;;;;58.47;52.20;;;;;;;1.66;100.00;97753.91;5079547;23;24474;-77
2022/03/19 04:26:37;;;;;;;61.83;51.03;;;;;;;1.92;100.00;97751.44;5073476;28;24445;-76
2022/03/19 04:29:04;;;;;;;60.83;54.17;;;;;;;1.84;100.00;97750.56;5075003;28;24426;-77
2022/03/19 04:31:30;;;;;;;57.70;50.40;;;;;;;1.91;100.00;97749.72;5074584;28;24446;-77
2022/03/19 04:33:56;;;;;;;59.65;50.50;;;;;;;2.28;100.00;97751.53;5073945;28;24426;-77
2022/03/19 04:36:32;;;;;;;56.83;50.65;;;;;;;2.23;100.00;97753.22;5074035;28;24792;-78
2022/03/19 04:39:02;;;;;;;61.97;50.65;;;;;;;2.09;100.00;97743.81;5074063;28;24415;-78
2022/03/19 04:41:29;;;;;;;61.63;50.13;;;;;;;1.87;100.00;97752.28;5073891;28;24959;-77
2022/03/19 04:43:56;;;;;;;58.60;51.53;;;;;;;1.84;100.00;97747.16;5071057;28;24448;-76
2022/03/19 04:46:22;;;;;;;58.70;49.08;;;;;;;1.82;100.00;97748.88;5064678;28;25010;-77
2022/03/19 04:48:49;;;;;;;57.58;48.33;;;;;;;2.04;100.00;97749.75;5073747;28;24488;-76
2022/03/19 04:51:18;;;;;;;56.75;50.08;;;;;;;1.94;100.00;97747.19;5074271;28;25024;-77
2022/03/19 04:53:49;;;;;;;55.47;49.50;;;;;;;2.13;100.00;97744.69;5073738;28;24838;-77
2022/03/19 04:56:17;;;;;;;58.35;49.90;;;;;;;2.06;100.00;97748.06;5062852;28;24420;-77
2022/03/19 04:58:43;;;;;;;53.72;47.92;;;;;;;1.85;100.00;97743.75;5073116;28;24425;-77
2022/03/19 05:01:10;;;;;;;63.88;50.55;;;;;;;1.85;100.00;97752.25;5073243;28;24452;-77
2022/03/19 05:03:36;;;;;;;61.28;50.25;;;;;;;1.79;100.00;97743.75;5073400;28;24430;-76
2022/03/19 05:06:03;;;;;;;64.22;49.75;;;;;;;1.89;100.00;97748.00;5074071;28;24472;-77
2022/03/19 05:08:29;;;;;;;64.40;49.75;;;;;;;1.95;100.00;97748.03;5071503;28;24854;-77
2022/03/19 05:11:13;;;;;;;58.08;49.40;;;;;;;1.92;100.00;97745.47;5054776;28;24465;-77
2022/03/19 05:13:43;;;;;;;62.72;49.22;;;;;;;1.92;100.00;97741.22;5053271;28;24546;-77
2022/03/19 05:16:09;;;;;;;60.95;53.28;;;;;;;1.91;100.00;97743.78;5054023;28;24529;-77
2022/03/19 05:18:36;;;;;;;53.23;47.43;;;;;;;1.99;100.00;97742.09;5053632;28;24453;-77
2022/03/19 05:21:02;;;;;;;53.53;47.65;;;;;;;1.89;100.00;97733.56;5053031;28;24976;-78
2022/03/19 05:23:29;;;;;;;56.92;48.83;;;;;;;1.98;100.00;97735.28;5052742;28;24948;-76
2022/03/19 05:25:55;;;;;;;54.03;48.33;;;;;;;2.06;100.00;97731.03;5052164;28;24956;-77
2022/03/19 05:28:22;;;;;;;51.65;46.35;;;;;;;2.13;100.00;97735.31;5054318;28;24431;-78
2022/03/19 05:30:50;;;;;;;56.47;47.90;;;;;;;1.97;100.00;97735.28;5054871;28;24480;-78
2022/03/19 05:33:16;;;;;;;57.78;47.80;;;;;;;1.96;100.00;97729.28;5055071;28;24464;-78
2022/03/19 05:35:44;;;;;;;61.22;46.63;;;;;;;1.93;100.00;97726.75;5059327;28;24446;-77
2022/03/19 05:38:12;;;;;;;59.05;47.22;;;;;;;1.85;100.00;97725.84;5051903;28;24469;-77
2022/03/19 05:40:38;;;;;;;55.75;48.20;;;;;;;1.91;100.00;97713.97;5051279;28;24415;-77
2022/03/19 05:43:05;;;;;;;58.85;48.45;;;;;;;1.88;100.00;97721.59;5051514;28;24431;-76
2022/03/19 05:45:31;;;;;;;54.60;46.38;;;;;;;1.92;100.00;97714.81;5051849;28;24431;-76
2022/03/19 05:47:59;;;;;;;58.03;48.08;;;;;;;1.95;100.00;97717.38;5051546;28;24824;-77
2022/03/19 05:50:26;;;;;;;54.13;48.30;;;;;;;1.75;100.00;97716.50;5051241;28;24423;-76
2022/03/19 05:52:52;;;;;;;58.92;48.08;;;;;;;1.91;100.00;97719.06;5051146;28;24447;-76
2022/03/19 05:55:19;;;;;;;56.33;48.10;;;;;;;1.71;100.00;97720.72;5051567;28;24812;-76
2022/03/19 05:57:45;;;;;;;53.80;47.20;;;;;;;1.67;100.00;97719.00;5051501;28;24415;-76
2022/03/19 06:00:12;;;;;;;52.25;46.42;;;;;;;1.78;100.00;97721.56;5050773;28;25002;-76
2022/03/19 06:02:40;;;;;;;55.07;46.57;;;;;;;1.79;100.00;97723.31;5050982;28;24995;-76
2022/03/19 06:05:09;;;;;;;55.17;45.97;;;;;;;1.82;100.00;97724.16;5050899;28;24514;-76
2022/03/19 06:07:35;;;;;;;53.20;46.93;;;;;;;1.84;100.00;97721.59;5050885;28;25025;-76
2022/03/19 06:10:02;;;;;;;64.05;48.17;;;;;;;1.99;100.00;97720.78;5050875;28;24439;-76
2022/03/19 06:12:28;;;;;;;57.00;46.63;;;;;;;2.24;100.00;97724.25;5050914;28;24454;-76
2022/03/19 06:14:55;;;;;;;53.03;45.30;;;;;;;2.28;100.00;97724.25;5050779;28;24423;-76
2022/03/19 06:17:22;;;;;;;62.42;47.40;;;;;;;2.09;100.00;97718.25;5050993;28;24427;-75
2022/03/19 06:19:48;;;;;;;50.80;45.17;;;;;;;2.32;100.00;97715.72;5050585;28;24473;-74
2022/03/19 06:22:16;;;;;;;57.92;46.25;;;;;;;2.26;100.00;97720.81;5050789;28;24471;-74
2022/03/19 06:24:42;;;;;;;55.92;47.22;;;;;;;2.03;100.00;97720.78;5050871;28;24419;-75
2022/03/19 06:27:09;;;;;;;51.38;45.13;;;;;;;2.26;100.00;97728.50;5050546;28;24963;-76
2022/03/19 06:29:35;;;;;;;59.55;47.55;;;;;;;2.26;100.00;97725.94;5050553;28;24419;-75
2022/03/19 06:32:02;;;;;;;56.85;47.25;;;;;;;2.24;100.00;97725.09;5050415;28;24843;-75
2022/03/19 06:34:30;;;;;;;57.30;48.00;;;;;;;2.16;100.00;97714.88;5050268;28;24506;-75
2022/03/19 06:39:49;;;;;;;53.17;45.80;;;;;;;2.50;100.00;97719.16;5034406;28;24524;-75
2022/03/19 06:42:16;;;;;;;49.25;43.95;;;;;;;2.65;100.00;97714.03;5050402;28;24427;-75
2022/03/19 06:44:42;;;;;;;48.03;42.70;;;;;;;2.75;100.00;97715.75;5050355;28;24526;-75
2022/03/19 06:47:09;;;;;;;58.05;44.22;;;;;;;2.89;100.00;97718.25;5050336;28;24427;-75
2022/03/19 06:49:35;;;;;;;49.17;43.60;;;;;;;2.94;100.00;97714.00;5057449;28;24843;-75
2022/03/19 06:52:02;;;;;;;49.83;42.83;;;;;;;2.87;100.00;97722.56;5060947;28;24481;-75
2022/03/19 06:54:28;;;;;;;52.47;44.92;;;;;;;3.10;100.00;97713.13;5058518;28;24984;-74
2022/03/19 06:56:56;;;;;;;52.05;44.85;;;;;;;3.11;100.00;97717.38;5050167;28;24975;-74
2022/03/19 06:59:22;;;;;;;51.58;44.28;;;;;;;3.12;100.00;97711.41;5049549;28;24975;-73
2022/03/19 07:01:49;;;;;;;48.50;43.20;;;;;;;3.23;100.00;97715.66;5050066;28;24423;-75
2022/03/19 07:04:15;;;;;;;46.77;41.37;;;;;;;3.70;100.00;97714.63;5050360;28;24439;-76
2022/03/19 07:06:42;;;;;;;54.35;43.78;;;;;;;3.95;100.00;97711.09;5050470;28;24978;-75
2022/03/19 07:09:08;;;;;;;54.40;43.38;;;;;;;3.91;100.00;97709.41;5050126;28;24426;-75
2022/03/19 07:11:36;;;;;;;53.67;42.95;;;;;;;3.81;100.00;97706.03;5050160;28;24415;-75
2022/03/19 07:14:09;;;;;;;46.65;41.35;;;;;;;3.98;100.00;97705.94;5050033;28;24543;-75
2022/03/19 07:16:37;;;;;;;53.47;43.75;;;;;;;4.12;100.00;97703.31;5050007;28;24419;-75
2022/03/19 07:19:04;;;;;;;49.40;42.80;;;;;;;4.31;100.00;97698.91;5050266;28;24431;-75
2022/03/19 07:21:30;;;;;;;46.17;40.35;;;;;;;4.35;100.00;97703.13;5050191;28;24419;-75
2022/03/19 07:23:57;;;;;;;52.13;41.80;;;;;;;4.59;100.00;97702.94;5049907;28;24435;-75
2022/03/19 07:26:23;;;;;;;53.10;41.10;;;;;;;4.57;100.00;97691.84;5052678;28;24432;-76
2022/03/19 07:28:50;;;;;;;50.80;42.03;;;;;;;4.82;100.00;97687.34;5053895;28;24423;-75
2022/03/19 07:31:18;;;;;;;53.88;41.20;;;;;;;4.55;100.00;97693.56;5054207;28;24434;-75
2022/03/19 07:33:47;;;;;;;48.28;40.97;;;;;;;4.92;100.00;97695.81;5054043;28;24983;-76
2022/03/19 07:36:13;;;;;;;50.70;39.80;;;;;;;4.88;100.00;97690.72;5054438;28;24513;-75
2022/03/19 07:38:40;;;;;;;53.47;39.63;;;;;;;4.94;100.00;97685.53;5053683;28;24797;-76
2022/03/19 07:43:50;;;;;;;49.00;39.33;;;;;;;5.30;100.00;97685.16;5053996;28;24460;-76
2022/03/19 07:46:20;;;;;;;53.50;42.87;;;;;;;5.39;100.00;97686.75;5054001;28;24473;-76
2022/03/19 07:48:46;;;;;;;50.63;41.88;;;;;;;5.52;99.89;97693.44;5053819;28;24437;-76
2022/03/19 07:51:13;;;;;;;50.67;41.92;;;;;;;5.65;100.00;97683.88;5053681;28;24963;-75
2022/03/19 07:53:40;;;;;;;52.13;41.57;;;;;;;5.81;100.00;97684.50;5053460;28;24462;-76
2022/03/19 07:56:06;;;;;;;55.43;44.20;;;;;;;5.68;100.00;97680.41;5053335;28;25070;-75
2022/03/19 07:58:33;;;;;;;45.17;40.13;;;;;;;5.48;100.00;97676.34;5053614;28;24883;-76
2022/03/19 08:00:59;;;;;;;51.40;41.40;;;;;;;5.69;100.00;97677.81;5053467;28;24427;-75
2022/03/19 08:03:27;;;;;;;51.92;42.15;;;;;;;5.52;99.02;97684.88;5053201;28;24434;-76
2022/03/19 08:05:55;;;;;;;52.95;40.75;;;;;;;5.62;99.40;97677.91;5053410;28;24423;-75
2022/03/19 08:08:21;;;;;;;50.40;42.63;;;;;;;5.92;100.00;97674.97;5053384;28;24464;-75
2022/03/19 08:10:48;;;;;;;46.57;39.53;;;;;;;5.79;99.73;97673.41;5052989;28;24550;-75
2022/03/19 08:13:14;;;;;;;48.47;38.47;;;;;;;5.94;98.94;97672.38;5053447;28;24530;-75
2022/03/19 08:15:41;;;;;;;44.67;39.78;;;;;;;5.86;95.81;97674.16;5053207;28;24438;-76
2022/03/19 08:18:10;;;;;;;46.25;37.88;;;;;;;5.90;96.55;97674.09;5053452;28;24422;-76
2022/03/19 08:20:39;;;;;;;45.85;39.17;;;;;;;6.05;97.34;97667.94;5053207;28;24434;-76
2022/03/19 08:23:05;;;;;;;51.58;39.35;;;;;;;6.03;90.37;97677.38;5052961;28;24418;-76
2022/03/19 08:25:32;;;;;;;45.60;37.42;;;;;;;6.16;93.14;97667.78;5053240;28;24773;-76
2022/03/19 08:27:59;;;;;;;43.47;37.45;;;;;;;6.22;96.02;97668.50;5053152;28;24423;-76
2022/03/19 08:30:26;;;;;;;43.67;36.47;;;;;;;6.48;93.36;97670.69;5052781;28;24442;-75
2022/03/19 08:32:52;;;;;;;46.75;37.25;;;;;;;6.65;95.11;97662.69;5053045;28;24460;-75
2022/03/19 08:35:19;;;;;;;45.55;35.83;;;;;;;6.70;85.60;97670.31;5052755;28;24469;-75
2022/03/19 08:37:47;;;;;;;46.40;35.67;;;;;;;6.81;88.66;97665.84;5051490;28;24411;-76
2022/03/19 08:40:16;;;;;;;40.28;34.97;;;;;;;7.03;87.01;97669.72;5052817;28;24476;-76
2022/03/19 08:42:43;;;;;;;43.45;36.05;;;;;;;6.86;83.90;97668.31;5052527;28;24994;-75
2022/03/19 08:45:10;;;;;;;43.45;36.50;;;;;;;6.94;87.81;97662.19;5052611;28;24785;-76
2022/03/19 08:47:36;;;;;;;40.33;33.50;;;;;;;7.12;83.02;97663.56;5052406;28;24419;-77
2022/03/19 08:50:03;;;;;;;36.23;32.00;;;;;;;7.17;83.21;97658.31;5052223;28;24519;-79
2022/03/19 08:52:30;;;;;;;43.85;33.42;;;;;;;7.26;84.75;97651.25;5051970;28;24430;-76
2022/03/19 08:54:58;;;;;;;41.42;33.38;;;;;;;7.17;78.23;97655.75;5052258;28;24481;-77
2022/03/19 08:57:24;;;;;;;37.88;31.73;;;;;;;7.19;78.57;97659.13;5052043;28;24513;-77
2022/03/19 08:59:51;;;;;;;42.88;33.30;;;;;;;7.09;79.61;97655.91;5051648;28;24423;-76
2022/03/19 09:02:17;;;;;;;40.13;31.67;;;;;;;7.05;76.10;97656.84;5051357;28;24423;-77
2022/03/19 09:04:44;;;;;;;47.25;37.88;;;;;;;6.96;81.48;97660.41;5052124;28;24463;-77
2022/03/19 09:07:12;;;;;;;41.80;31.88;;;;;;;7.13;80.92;97657.53;5051798;28;24415;-77
2022/03/19 09:09:39;;;;;;;38.25;31.23;;;;;;;7.57;81.20;97654.97;5051496;28;24518;-78
2022/03/19 09:12:08;;;;;;;40.13;30.30;;;;;;;7.68;77.99;97659.00;5052061;28;24423;-77
2022/03/19 09:14:34;;;;;;;41.25;30.05;;;;;;;7.90;79.03;97661.97;5052252;28;24447;-76
2022/03/19 09:17:01;;;;;;;33.28;29.63;;;;;;;8.09;77.04;97648.66;5053979;28;24773;-78
2022/03/19 09:19:28;;;;;;;36.70;30.20;;;;;;;8.04;73.76;97656.50;5051125;28;24995;-77
2022/03/19 09:21:54;;;;;;;33.42;28.83;;;;;;;8.07;74.70;97656.44;5051855;28;24434;-77
2022/03/19 09:24:21;;;;;;;36.40;27.92;;;;;;;7.92;69.62;97647.28;5051387;28;24431;-76
2022/03/19 09:26:48;;;;;;;38.70;29.23;;;;;;;7.81;69.85;97654.44;5051679;28;24424;-76
2022/03/19 09:29:16;;;;;;;33.50;28.13;;;;;;;7.88;70.55;97648.25;5051047;28;24435;-76
2022/03/19 09:31:43;;;;;;;33.67;28.60;;;;;;;8.06;74.36;97633.25;5051556;28;24476;-77
2022/03/19 09:34:10;;;;;;;41.30;29.30;;;;;;;8.29;73.54;97641.28;5051231;28;24555;-77
2022/03/19 09:36:36;;;;;;;34.80;27.70;;;;;;;8.28;73.08;97629.28;5060902;28;24442;-78
2022/03/19 09:39:03;;;;;;;34.40;28.13;;;;;;;8.47;75.34;97633.13;5061397;28;24431;-77
2022/03/19 09:41:29;;;;;;;33.90;28.50;;;;;;;8.72;72.78;97624.78;5060453;28;24450;-76
2022/03/19 09:43:57;;;;;;;33.67;29.15;;;;;;;8.95;73.79;97617.25;5066174;28;24438;-76
2022/03/19 09:46:26;;;;;;;32.92;26.85;;;;;;;8.87;66.75;97616.63;5060356;28;20859;-78
2022/03/19 09:48:53;;;;;;;29.92;26.20;;;;;;;8.86;67.17;97609.78;5050906;28;24518;-76
2022/03/19 09:51:21;;;;;;;31.83;25.87;;;;;;;8.94;65.26;97600.06;5051222;28;24435;-77
2022/03/19 09:53:48;;;;;;;29.13;25.85;;;;;;;9.11;67.12;97602.19;5049731;28;24470;-77
2022/03/19 09:56:16;;;;;;;29.80;24.35;;;;;;;9.19;63.88;97589.03;5059974;28;20795;-77
2022/03/19 09:58:43;;;;;;;34.30;25.85;;;;;;;9.10;67.51;97591.91;5058261;28;20753;-78
2022/03/19 10:01:09;;;;;;;33.67;24.83;;;;;;;9.28;68.48;97586.19;5071319;28;24414;-74
2022/03/19 10:03:42;;;;;;;32.13;25.63;;;;;;;9.38;65.00;97581.59;5069910;28;24435;-77
2022/03/19 10:08:58;;;;;;;32.58;25.05;;;;;;;9.57;64.49;97571.59;5050913;28;21389;-78
2022/03/19 10:11:30;;;;;;;28.27;24.25;;;;;;;9.53;66.19;97573.41;5050069;28;20811;-76
2022/03/19 10:13:57;;;;;;;29.97;25.77;;;;;;;9.68;68.96;97582.47;5066101;28;21000;-77
2022/03/19 10:16:25;;;;;;;32.57;25.63;;;;;;;9.90;65.43;97580.91;5071180;28;24545;-77
2022/03/19 10:18:57;;;;;;;32.80;26.23;;;;;;;9.92;65.32;97581.69;5070965;28;21282;-77
2022/03/19 10:21:24;;;;;;;38.33;26.08;;;;;;;9.96;65.22;97571.25;5059663;28;20687;-78
2022/03/19 10:23:51;;;;;;;36.30;27.05;;;;;;;9.98;67.06;97567.72;5050699;28;20769;-77
2022/03/19 10:26:28;;;;;;;37.92;26.67;;;;;;;9.83;65.45;97556.09;5050776;28;20767;-77
2022/03/19 10:28:59;;;;;;;36.35;27.42;;;;;;;9.93;66.71;97552.31;5050645;28;25163;-77
2022/03/19 10:31:31;;;;;;;33.10;27.80;;;;;;;10.02;67.56;97545.16;5051229;28;20675;-77
2022/03/19 10:33:59;;;;;;;31.25;26.58;;;;;;;10.05;64.78;97545.03;5050319;28;25085;-76
2022/03/19 10:36:31;;;;;;;31.27;26.17;;;;;;;10.17;65.65;97552.44;5060477;28;20813;-76
2022/03/19 10:38:59;;;;;;;32.55;26.60;;;;;;;10.12;64.61;97543.94;5070516;28;20625;-75
2022/03/19 10:41:25;;;;;;;35.55;26.70;;;;;;;10.23;66.09;97539.25;5065803;28;20871;-76
2022/03/19 10:43:52;;;;;;;30.50;26.33;;;;;;;9.95;59.97;97523.81;5050846;28;20793;-76
2022/03/19 10:46:19;;;;;;;30.48;25.80;;;;;;;9.64;61.64;97526.50;5050530;28;20745;-76
2022/03/19 10:48:49;;;;;;;30.40;25.83;;;;;;;9.90;67.88;97518.78;5050174;28;24472;-76
2022/03/19 10:51:18;;;;;;;38.97;28.27;;;;;;;10.02;65.51;97519.28;5067642;28;20717;-77
2022/03/19 10:53:45;;;;;;;32.67;26.35;;;;;;;10.08;65.12;97516.47;5061990;28;20819;-76
2022/03/19 10:56:12;;;;;;;38.50;27.48;;;;;;;10.09;66.54;97506.09;5050318;28;20805;-76
2022/03/19 10:58:39;;;;;;;34.80;28.83;;;;;;;10.18;64.79;97503.16;5049901;28;20737;-75
2022/03/19 11:01:07;;;;;;;35.25;28.95;;;;;;;10.17;71.98;97496.31;5073073;23;24408;-76
2022/03/19 11:03:36;;;;;;;40.13;28.08;;;;;;;10.00;64.99;97490.00;5050521;28;24442;-76
2022/03/19 11:06:05;;;;;;;34.72;27.45;;;;;;;9.97;72.16;97483.16;5065539;28;24466;-76
2022/03/19 11:08:37;;;;;;;30.02;26.75;;;;;;;9.78;65.20;97477.75;5069551;28;24526;-76
2022/03/19 11:11:08;;;;;;;40.50;29.50;;;;;;;9.53;67.71;97469.06;5067715;28;24536;-76
2022/03/19 11:13:41;;;;;;;37.38;31.02;;;;;;;9.58;68.42;97472.38;5050143;28;24450;-76
2022/03/19 11:16:09;;;;;;;43.78;31.73;;;;;;;9.34;70.89;97463.63;5050019;28;24443;-76
2022/03/19 11:18:38;;;;;;;39.58;31.63;;;;;;;9.07;62.70;97468.75;5050440;28;24426;-76
2022/03/19 11:21:05;;;;;;;34.65;29.85;;;;;;;9.10;67.59;97455.75;5050082;28;24415;-76
2022/03/19 11:23:42;;;;;;;38.73;32.10;;;;;;;9.57;69.71;97453.44;5038482;28;24454;-76
2022/03/19 11:26:12;;;;;;;36.35;31.13;;;;;;;9.53;66.85;97450.97;5030236;28;20799;-76
2022/03/19 11:28:39;;;;;;;40.47;30.85;;;;;;;9.34;64.56;97451.53;5029915;28;24774;-77
2022/03/19 11:31:08;;;;;;;35.97;30.70;;;;;;;9.35;64.50;97447.25;5030269;28;24489;-76